sensor_id;sensor_type;location;lat;lon;timestamp;pressure;altitude;pressure_sealevel;temperature;humidity
12781;BME280;6454;43.304;24.344;2022-09-24T00:00:47;100672.72;;;8.50;75.88
12781;BME280;6454;43.304;24.344;2022-09-24T00:03:18;100669.44;;;8.43;75.70
12781;BME280;6454;43.304;24.344;2022-09-24T00:05:45;100672.41;;;8.41;75.84
12781;BME280;6454;43.304;24.344;2022-09-24T00:08:14;100644.88;;;8.18;75.94
12781;BME280;6454;43.304;24.344;2022-09-24T00:10:43;100668.03;;;8.35;76.15
12781;BME280;6454;43.304;24.344;2022-09-24T00:13:11;100666.66;;;8.33;76.18
12781;BME280;6454;43.304;24.344;2022-09-24T00:15:40;100652.94;;;8.39;75.50
12781;BME280;6454;43.304;24.344;2022-09-24T00:18:09;100665.91;;;8.37;75.61
12781;BME280;6454;43.304;24.344;2022-09-24T00:20:36;100665.09;;;8.37;75.44
12781;BME280;6454;43.304;24.344;2022-09-24T00:23:04;100669.13;;;8.34;75.41
12781;BME280;6454;43.304;24.344;2022-09-24T00:25:32;100667.69;;;8.27;75.50
12781;BME280;6454;43.304;24.344;2022-09-24T00:28:16;100662.28;;;8.27;75.81
12781;BME280;6454;43.304;24.344;2022-09-24T00:30:43;100654.13;;;8.22;75.69
12781;BME280;6454;43.304;24.344;2022-09-24T00:33:12;100657.91;;;8.26;75.13
12781;BME280;6454;43.304;24.344;2022-09-24T00:35:38;100663.78;;;8.18;75.91
12781;BME280;6454;43.304;24.344;2022-09-24T00:38:06;100657.34;;;8.19;76.00
12781;BME280;6454;43.304;24.344;2022-09-24T00:40:35;100650.81;;;8.15;76.19
12781;BME280;6454;43.304;24.344;2022-09-24T00:43:20;100642.38;;;8.06;76.34
12781;BME280;6454;43.304;24.344;2022-09-24T00:45:47;100632.88;;;8.04;76.37
12781;BME280;6454;43.304;24.344;2022-09-24T00:48:17;100639.31;;;7.98;76.35
12781;BME280;6454;43.304;24.344;2022-09-24T00:50:45;100641.25;;;8.02;76.49
12781;BME280;6454;43.304;24.344;2022-09-24T00:53:14;100649.09;;;8.04;76.85
12781;BME280;6454;43.304;24.344;2022-09-24T00:55:43;100642.31;;;8.01;77.10
12781;BME280;6454;43.304;24.344;2022-09-24T00:58:12;100644.50;;;8.04;76.99
12781;BME280;6454;43.304;24.344;2022-09-24T01:00:40;100648.59;;;8.07;76.79
12781;BME280;6454;43.304;24.344;2022-09-24T01:03:13;100639.63;;;8.01;76.93
12781;BME280;6454;43.304;24.344;2022-09-24T01:05:43;100645.34;;;8.05;77.15
12781;BME280;6454;43.304;24.344;2022-09-24T01:08:11;100648.13;;;8.15;77.10
12781;BME280;6454;43.304;24.344;2022-09-24T01:10:52;100635.13;;;8.12;76.71
12781;BME280;6454;43.304;24.344;2022-09-24T01:13:32;100637.81;;;8.12;76.70
12781;BME280;6454;43.304;24.344;2022-09-24T01:16:10;100631.56;;;8.06;77.28
12781;BME280;6454;43.304;24.344;2022-09-24T01:18:43;100631.94;;;8.20;77.28
12781;BME280;6454;43.304;24.344;2022-09-24T01:21:22;100630.03;;;8.20;76.71
12781;BME280;6454;43.304;24.344;2022-09-24T01:24:03;100620.19;;;8.04;76.38
12781;BME280;6454;43.304;24.344;2022-09-24T01:26:48;100638.97;;;8.21;76.13
12781;BME280;6454;43.304;24.344;2022-09-24T01:29:41;100633.53;;;8.16;76.65
12781;BME280;6454;43.304;24.344;2022-09-24T01:32:16;100635.72;;;8.19;76.55
12781;BME280;6454;43.304;24.344;2022-09-24T01:34:48;100635.72;;;8.19;76.96
12781;BME280;6454;43.304;24.344;2022-09-24T01:37:18;100621.38;;;8.18;77.16
12781;BME280;6454;43.304;24.344;2022-09-24T01:39:48;100631.41;;;8.23;77.13
12781;BME280;6454;43.304;24.344;2022-09-24T01:42:17;100626.78;;;8.18;77.43
12781;BME280;6454;43.304;24.344;2022-09-24T01:44:47;100629.28;;;8.25;77.84
12781;BME280;6454;43.304;24.344;2022-09-24T01:47:21;100628.25;;;8.31;77.52
12781;BME280;6454;43.304;24.344;2022-09-24T01:49:50;100613.03;;;8.20;77.07
12781;BME280;6454;43.304;24.344;2022-09-24T01:52:21;100626.09;;;8.33;77.59
12781;BME280;6454;43.304;24.344;2022-09-24T01:54:51;100633.97;;;8.34;77.49
12781;BME280;6454;43.304;24.344;2022-09-24T01:57:22;100635.06;;;8.38;77.40
12781;BME280;6454;43.304;24.344;2022-09-24T01:59:56;100641.59;;;8.43;77.05
12781;BME280;6454;43.304;24.344;2022-09-24T02:02:27;100646.72;;;8.39;77.08
12781;BME280;6454;43.304;24.344;2022-09-24T02:04:59;100640.16;;;8.30;77.49
12781;BME280;6454;43.304;24.344;2022-09-24T02:07:32;100642.31;;;8.33;77.58
12781;BME280;6454;43.304;24.344;2022-09-24T02:10:00;100653.72;;;8.35;77.39
12781;BME280;6454;43.304;24.344;2022-09-24T02:12:31;100616.25;;;8.17;77.51
12781;BME280;6454;43.304;24.344;2022-09-24T02:15:03;100641.22;;;8.29;77.43
12781;BME280;6454;43.304;24.344;2022-09-24T02:17:34;100642.28;;;8.28;77.21
12781;BME280;6454;43.304;24.344;2022-09-24T02:20:05;100644.19;;;8.27;77.34
12781;BME280;6454;43.304;24.344;2022-09-24T02:22:33;100649.81;;;8.26;77.68
12781;BME280;6454;43.304;24.344;2022-09-24T02:25:02;100630.22;;;8.09;77.72
12781;BME280;6454;43.304;24.344;2022-09-24T02:27:30;100650.91;;;8.25;77.83
12781;BME280;6454;43.304;24.344;2022-09-24T02:29:57;100654.66;;;8.24;78.11
12781;BME280;6454;43.304;24.344;2022-09-24T02:32:29;100652.78;;;8.24;78.22
12781;BME280;6454;43.304;24.344;2022-09-24T02:38:19;100653.91;;;8.28;78.42
12781;BME280;6454;43.304;24.344;2022-09-24T02:40:46;100650.97;;;8.30;78.16
12781;BME280;6454;43.304;24.344;2022-09-24T02:43:14;100656.38;;;8.30;77.47
12781;BME280;6454;43.304;24.344;2022-09-24T02:45:41;100654.13;;;8.22;78.08
12781;BME280;6454;43.304;24.344;2022-09-24T02:48:09;100651.66;;;8.20;78.98
12781;BME280;6454;43.304;24.344;2022-09-24T02:50:36;100658.97;;;8.20;78.56
12781;BME280;6454;43.304;24.344;2022-09-24T02:53:03;100645.50;;;8.25;78.96
12781;BME280;6454;43.304;24.344;2022-09-24T02:55:30;100659.59;;;8.27;78.66
12781;BME280;6454;43.304;24.344;2022-09-24T02:57:56;100654.19;;;8.27;79.31
12781;BME280;6454;43.304;24.344;2022-09-24T03:00:24;100663.94;;;8.33;79.30
12781;BME280;6454;43.304;24.344;2022-09-24T03:02:51;100664.53;;;8.35;79.67
12781;BME280;6454;43.304;24.344;2022-09-24T03:05:19;100669.16;;;8.39;80.07
12781;BME280;6454;43.304;24.344;2022-09-24T03:07:46;100662.22;;;8.54;79.95
12781;BME280;6454;43.304;24.344;2022-09-24T03:10:14;100668.72;;;8.58;79.51
12781;BME280;6454;43.304;24.344;2022-09-24T03:12:41;100666.88;;;8.63;78.69
12781;BME280;6454;43.304;24.344;2022-09-24T03:15:27;100667.97;;;8.62;78.45
12781;BME280;6454;43.304;24.344;2022-09-24T03:17:54;100662.78;;;8.61;78.38
12781;BME280;6454;43.304;24.344;2022-09-24T03:20:23;100670.13;;;8.65;78.21
12781;BME280;6454;43.304;24.344;2022-09-24T03:22:50;100671.53;;;8.73;78.13
12781;BME280;6454;43.304;24.344;2022-09-24T03:25:17;100665.00;;;8.69;77.62
12781;BME280;6454;43.304;24.344;2022-09-24T03:27:44;100676.38;;;8.71;77.34
12781;BME280;6454;43.304;24.344;2022-09-24T03:30:12;100665.22;;;8.57;77.39
12781;BME280;6454;43.304;24.344;2022-09-24T03:32:57;100671.19;;;8.59;77.66
12781;BME280;6454;43.304;24.344;2022-09-24T03:35:25;100677.16;;;8.66;77.65
12781;BME280;6454;43.304;24.344;2022-09-24T03:37:52;100672.56;;;8.62;76.96
12781;BME280;6454;43.304;24.344;2022-09-24T03:40:19;100677.69;;;8.63;76.84
12781;BME280;6454;43.304;24.344;2022-09-24T03:42:46;100683.09;;;8.63;76.80
12781;BME280;6454;43.304;24.344;2022-09-24T03:45:13;100680.66;;;8.62;76.53
12781;BME280;6454;43.304;24.344;2022-09-24T03:47:40;100686.28;;;8.55;76.48
12781;BME280;6454;43.304;24.344;2022-09-24T03:50:07;100683.78;;;8.43;76.71
12781;BME280;6454;43.304;24.344;2022-09-24T03:52:37;100670.63;;;8.25;77.28
12781;BME280;6454;43.304;24.344;2022-09-24T03:55:06;100692.69;;;8.44;77.55
12781;BME280;6454;43.304;24.344;2022-09-24T03:57:33;100693.47;;;8.39;77.03
12781;BME280;6454;43.304;24.344;2022-09-24T04:00:00;100694.00;;;8.36;76.78
12781;BME280;6454;43.304;24.344;2022-09-24T04:02:27;100693.94;;;8.31;76.79
12781;BME280;6454;43.304;24.344;2022-09-24T04:04:55;100694.72;;;8.27;76.66
12781;BME280;6454;43.304;24.344;2022-09-24T04:07:22;100690.88;;;8.23;76.71
12781;BME280;6454;43.304;24.344;2022-09-24T04:09:50;100692.16;;;8.15;77.08
12781;BME280;6454;43.304;24.344;2022-09-24T04:12:17;100692.38;;;8.09;77.08
12781;BME280;6454;43.304;24.344;2022-09-24T04:14:44;100692.38;;;8.09;77.35
12781;BME280;6454;43.304;24.344;2022-09-24T04:17:11;100697.72;;;8.04;77.25
12781;BME280;6454;43.304;24.344;2022-09-24T04:19:38;100702.81;;;8.00;77.56
12781;BME280;6454;43.304;24.344;2022-09-24T04:22:05;100708.22;;;8.00;78.03
12781;BME280;6454;43.304;24.344;2022-09-24T04:24:32;100701.97;;;7.95;78.07
12781;BME280;6454;43.304;24.344;2022-09-24T04:27:01;100705.75;;;7.94;78.32
12781;BME280;6454;43.304;24.344;2022-09-24T04:29:28;100719.28;;;7.99;78.54
12781;BME280;6454;43.304;24.344;2022-09-24T04:31:55;100712.88;;;8.05;78.27
12781;BME280;6454;43.304;24.344;2022-09-24T04:34:22;100710.19;;;8.05;78.80
12781;BME280;6454;43.304;24.344;2022-09-24T04:36:49;100721.88;;;8.15;78.89
12781;BME280;6454;43.304;24.344;2022-09-24T04:39:16;100721.03;;;8.10;78.85
12781;BME280;6454;43.304;24.344;2022-09-24T04:41:43;100711.34;;;8.14;79.40
12781;BME280;6454;43.304;24.344;2022-09-24T04:44:13;100718.16;;;8.21;79.83
12781;BME280;6454;43.304;24.344;2022-09-24T04:46:40;100718.47;;;8.25;79.80
12781;BME280;6454;43.304;24.344;2022-09-24T04:49:07;100726.13;;;8.33;79.74
12781;BME280;6454;43.304;24.344;2022-09-24T04:51:34;100731.56;;;8.38;79.89
12781;BME280;6454;43.304;24.344;2022-09-24T04:54:02;100729.22;;;8.47;79.94
12781;BME280;6454;43.304;24.344;2022-09-24T04:56:29;100726.78;;;8.50;80.14
12781;BME280;6454;43.304;24.344;2022-09-24T04:58:56;100724.16;;;8.60;79.76
12781;BME280;6454;43.304;24.344;2022-09-24T05:01:25;100721.00;;;8.68;79.02
12781;BME280;6454;43.304;24.344;2022-09-24T05:03:52;100730.50;;;8.76;79.29
12781;BME280;6454;43.304;24.344;2022-09-24T05:06:19;100725.44;;;8.84;78.89
12781;BME280;6454;43.304;24.344;2022-09-24T05:08:46;100728.22;;;8.94;78.52
12781;BME280;6454;43.304;24.344;2022-09-24T05:11:13;100733.41;;;9.06;78.36
12781;BME280;6454;43.304;24.344;2022-09-24T05:13:40;100739.94;;;9.15;78.17
12781;BME280;6454;43.304;24.344;2022-09-24T05:16:07;100736.19;;;9.21;77.85
12781;BME280;6454;43.304;24.344;2022-09-24T05:18:35;100732.19;;;9.29;77.76
12781;BME280;6454;43.304;24.344;2022-09-24T05:21:02;100732.50;;;9.42;77.64
12781;BME280;6454;43.304;24.344;2022-09-24T05:23:29;100726.56;;;9.50;77.20
12781;BME280;6454;43.304;24.344;2022-09-24T05:25:56;100732.06;;;9.65;76.65
12781;BME280;6454;43.304;24.344;2022-09-24T05:28:41;100721.47;;;9.59;76.53
12781;BME280;6454;43.304;24.344;2022-09-24T05:31:08;100734.56;;;9.82;76.34
12781;BME280;6454;43.304;24.344;2022-09-24T05:33:36;100739.97;;;9.92;76.16
12781;BME280;6454;43.304;24.344;2022-09-24T05:36:03;100728.63;;;10.05;75.57
12781;BME280;6454;43.304;24.344;2022-09-24T05:38:30;100731.91;;;10.12;75.62
12781;BME280;6454;43.304;24.344;2022-09-24T05:40:58;100730.03;;;10.23;74.99
12781;BME280;6454;43.304;24.344;2022-09-24T05:43:25;100733.28;;;10.35;74.99
12781;BME280;6454;43.304;24.344;2022-09-24T05:45:53;100730.88;;;10.49;74.38
12781;BME280;6454;43.304;24.344;2022-09-24T05:48:23;100733.84;;;10.62;74.00
12781;BME280;6454;43.304;24.344;2022-09-24T05:50:51;100733.03;;;10.67;74.17
12781;BME280;6454;43.304;24.344;2022-09-24T05:53:20;100738.72;;;10.80;73.87
12781;BME280;6454;43.304;24.344;2022-09-24T05:55:47;100736.50;;;10.92;73.55
12781;BME280;6454;43.304;24.344;2022-09-24T05:58:14;100744.09;;;11.06;73.33
12781;BME280;6454;43.304;24.344;2022-09-24T06:00:41;100739.44;;;11.21;72.57
12781;BME280;6454;43.304;24.344;2022-09-24T06:03:10;100745.38;;;11.33;71.21
12781;BME280;6454;43.304;24.344;2022-09-24T06:05:38;100742.63;;;11.48;71.18
12781;BME280;6454;43.304;24.344;2022-09-24T06:08:10;100742.00;;;11.67;70.35
12781;BME280;6454;43.304;24.344;2022-09-24T06:10:36;100745.25;;;11.74;69.24
12781;BME280;6454;43.304;24.344;2022-09-24T06:13:03;100748.44;;;11.86;69.40
12781;BME280;6454;43.304;24.344;2022-09-24T06:15:30;100751.63;;;11.98;69.66
12781;BME280;6454;43.304;24.344;2022-09-24T06:17:57;100751.84;;;12.11;68.83
12781;BME280;6454;43.304;24.344;2022-09-24T06:23:31;100752.69;;;12.46;67.29
12781;BME280;6454;43.304;24.344;2022-09-24T06:25:57;100755.28;;;12.61;67.05
12781;BME280;6454;43.304;24.344;2022-09-24T06:28:24;100751.88;;;12.74;66.80
12781;BME280;6454;43.304;24.344;2022-09-24T06:30:52;100749.88;;;12.84;66.84
12781;BME280;6454;43.304;24.344;2022-09-24T06:33:19;100755.19;;;13.00;66.26
12781;BME280;6454;43.304;24.344;2022-09-24T06:35:47;100761.38;;;13.10;65.55
12781;BME280;6454;43.304;24.344;2022-09-24T06:38:15;100764.22;;;13.24;64.87
12781;BME280;6454;43.304;24.344;2022-09-24T06:40:45;100763.25;;;13.38;64.38
12781;BME280;6454;43.304;24.344;2022-09-24T06:43:13;100766.38;;;13.50;64.74
12781;BME280;6454;43.304;24.344;2022-09-24T06:45:43;100758.09;;;13.61;62.66
12781;BME280;6454;43.304;24.344;2022-09-24T06:48:11;100756.00;;;13.71;62.20
12781;BME280;6454;43.304;24.344;2022-09-24T06:50:40;100755.63;;;13.83;62.16
12781;BME280;6454;43.304;24.344;2022-09-24T06:53:08;100755.75;;;13.91;60.56
12781;BME280;6454;43.304;24.344;2022-09-24T06:55:36;100758.41;;;13.96;60.17
12781;BME280;6454;43.304;24.344;2022-09-24T06:58:06;100768.09;;;14.07;59.46
12781;BME280;6454;43.304;24.344;2022-09-24T07:00:34;100770.88;;;14.21;58.33
12781;BME280;6454;43.304;24.344;2022-09-24T07:03:02;100769.97;;;14.31;59.00
12781;BME280;6454;43.304;24.344;2022-09-24T07:05:29;100773.56;;;14.45;58.60
12781;BME280;6454;43.304;24.344;2022-09-24T07:07:55;100769.56;;;14.56;57.29
12781;BME280;6454;43.304;24.344;2022-09-24T07:10:22;100768.88;;;14.64;57.38
12781;BME280;6454;43.304;24.344;2022-09-24T07:12:50;100775.00;;;14.74;57.00
12781;BME280;6454;43.304;24.344;2022-09-24T07:15:19;100779.09;;;14.91;55.56
12781;BME280;6454;43.304;24.344;2022-09-24T07:17:46;100774.25;;;15.01;55.60
12781;BME280;6454;43.304;24.344;2022-09-24T07:20:13;100775.78;;;15.07;55.61
12781;BME280;6454;43.304;24.344;2022-09-24T07:22:40;100778.34;;;15.17;55.30
12781;BME280;6454;43.304;24.344;2022-09-24T07:25:09;100778.16;;;15.27;54.58
12781;BME280;6454;43.304;24.344;2022-09-24T07:27:36;100771.97;;;15.35;53.91
12781;BME280;6454;43.304;24.344;2022-09-24T07:30:04;100772.06;;;15.44;53.05
12781;BME280;6454;43.304;24.344;2022-09-24T07:32:33;100767.03;;;15.51;52.31
12781;BME280;6454;43.304;24.344;2022-09-24T07:35:00;100770.59;;;15.65;52.98
12781;BME280;6454;43.304;24.344;2022-09-24T07:37:27;100766.53;;;15.76;53.23
12781;BME280;6454;43.304;24.344;2022-09-24T07:39:57;100758.31;;;15.90;52.85
12781;BME280;6454;43.304;24.344;2022-09-24T07:42:24;100750.59;;;15.92;51.38
12781;BME280;6454;43.304;24.344;2022-09-24T07:44:51;100756.59;;;16.16;50.68
12781;BME280;6454;43.304;24.344;2022-09-24T07:47:18;100754.13;;;16.28;49.44
12781;BME280;6454;43.304;24.344;2022-09-24T07:49:46;100751.28;;;16.33;49.12
12781;BME280;6454;43.304;24.344;2022-09-24T07:52:13;100746.69;;;16.42;49.45
12781;BME280;6454;43.304;24.344;2022-09-24T07:54:40;100759.53;;;16.55;49.39
12781;BME280;6454;43.304;24.344;2022-09-24T07:57:09;100758.91;;;16.58;48.52
12781;BME280;6454;43.304;24.344;2022-09-24T07:59:38;100758.66;;;16.68;49.12
12781;BME280;6454;43.304;24.344;2022-09-24T08:02:09;100758.78;;;16.86;49.43
12781;BME280;6454;43.304;24.344;2022-09-24T08:04:40;100761.75;;;16.98;48.97
12781;BME280;6454;43.304;24.344;2022-09-24T08:07:08;100761.94;;;17.01;47.51
12781;BME280;6454;43.304;24.344;2022-09-24T08:09:35;100758.88;;;17.03;47.42
12781;BME280;6454;43.304;24.344;2022-09-24T08:12:03;100759.41;;;17.13;47.65
12781;BME280;6454;43.304;24.344;2022-09-24T08:14:30;100749.63;;;17.21;47.34
12781;BME280;6454;43.304;24.344;2022-09-24T08:16:57;100752.06;;;17.31;47.41
12781;BME280;6454;43.304;24.344;2022-09-24T08:19:24;100751.31;;;17.39;47.39
12781;BME280;6454;43.304;24.344;2022-09-24T08:21:51;100760.25;;;17.53;46.23
12781;BME280;6454;43.304;24.344;2022-09-24T08:24:20;100756.06;;;17.56;45.11
12781;BME280;6454;43.304;24.344;2022-09-24T08:26:46;100757.06;;;17.60;45.85
12781;BME280;6454;43.304;24.344;2022-09-24T08:29:13;100754.19;;;17.65;45.26
12781;BME280;6454;43.304;24.344;2022-09-24T08:31:41;100756.59;;;17.66;44.49
12781;BME280;6454;43.304;24.344;2022-09-24T08:34:08;100761.94;;;17.71;44.02
12781;BME280;6454;43.304;24.344;2022-09-24T08:36:34;100764.19;;;17.69;42.30
12781;BME280;6454;43.304;24.344;2022-09-24T08:39:01;100762.72;;;17.63;42.01
12781;BME280;6454;43.304;24.344;2022-09-24T08:41:43;100770.97;;;17.72;43.41
12781;BME280;6454;43.304;24.344;2022-09-24T08:44:18;100749.00;;;17.63;43.00
12781;BME280;6454;43.304;24.344;2022-09-24T08:47:12;100764.38;;;17.81;42.67
12781;BME280;6454;43.304;24.344;2022-09-24T08:49:53;100762.94;;;17.84;41.90
12781;BME280;6454;43.304;24.344;2022-09-24T08:52:32;100753.25;;;17.95;42.81
12781;BME280;6454;43.304;24.344;2022-09-24T08:55:06;100751.50;;;18.08;41.72
12781;BME280;6454;43.304;24.344;2022-09-24T08:57:43;100749.56;;;18.17;41.18
12781;BME280;6454;43.304;24.344;2022-09-24T09:00:15;100745.88;;;18.21;41.02
12781;BME280;6454;43.304;24.344;2022-09-24T09:02:46;100744.41;;;18.24;39.73
12781;BME280;6454;43.304;24.344;2022-09-24T09:05:22;100750.22;;;18.31;41.00
12781;BME280;6454;43.304;24.344;2022-09-24T09:07:59;100739.56;;;18.38;40.90
12781;BME280;6454;43.304;24.344;2022-09-24T09:10:31;100746.81;;;18.42;40.14
12781;BME280;6454;43.304;24.344;2022-09-24T09:13:05;100735.38;;;18.49;39.66
12781;BME280;6454;43.304;24.344;2022-09-24T09:15:39;100738.28;;;18.61;40.23
12781;BME280;6454;43.304;24.344;2022-09-24T09:18:13;100745.06;;;18.72;39.81
12781;BME280;6454;43.304;24.344;2022-09-24T09:20:43;100741.81;;;18.79;38.83
12781;BME280;6454;43.304;24.344;2022-09-24T09:23:13;100741.31;;;18.77;38.33
12781;BME280;6454;43.304;24.344;2022-09-24T09:25:46;100726.41;;;18.86;38.43
12781;BME280;6454;43.304;24.344;2022-09-24T09:28:19;100740.66;;;18.88;38.56
12781;BME280;6454;43.304;24.344;2022-09-24T09:30:55;100718.53;;;18.67;38.04
12781;BME280;6454;43.304;24.344;2022-09-24T09:33:37;100725.44;;;18.82;39.03
12781;BME280;6454;43.304;24.344;2022-09-24T09:36:19;100737.28;;;18.65;39.23
12781;BME280;6454;43.304;24.344;2022-09-24T09:38:53;100732.28;;;18.76;39.89
12781;BME280;6454;43.304;24.344;2022-09-24T09:41:31;100720.81;;;18.74;39.22
12781;BME280;6454;43.304;24.344;2022-09-24T09:44:10;100728.03;;;18.87;39.18
12781;BME280;6454;43.304;24.344;2022-09-24T09:46:42;100720.56;;;18.96;38.63
12781;BME280;6454;43.304;24.344;2022-09-24T09:49:13;100705.13;;;19.12;39.20
12781;BME280;6454;43.304;24.344;2022-09-24T09:51:41;100708.81;;;19.25;39.66
12781;BME280;6454;43.304;24.344;2022-09-24T09:54:09;100698.09;;;19.32;38.72
12781;BME280;6454;43.304;24.344;2022-09-24T09:56:41;100695.69;;;19.39;38.57
12781;BME280;6454;43.304;24.344;2022-09-24T09:59:16;100697.91;;;19.46;37.56
12781;BME280;6454;43.304;24.344;2022-09-24T10:01:45;100696.88;;;19.50;37.91
12781;BME280;6454;43.304;24.344;2022-09-24T10:04:29;100701.88;;;19.57;38.36
12781;BME280;6454;43.304;24.344;2022-09-24T10:07:05;100699.59;;;19.59;37.33
12781;BME280;6454;43.304;24.344;2022-09-24T10:09:33;100653.59;;;19.30;37.63
12781;BME280;6454;43.304;24.344;2022-09-24T10:12:17;100686.66;;;19.59;37.56
12781;BME280;6454;43.304;24.344;2022-09-24T10:14:57;100677.25;;;19.60;36.95
12781;BME280;6454;43.304;24.344;2022-09-24T10:17:28;100685.00;;;19.67;39.90
12781;BME280;6454;43.304;24.344;2022-09-24T10:19:56;100683.25;;;19.83;38.14
12781;BME280;6454;43.304;24.344;2022-09-24T10:22:26;100670.94;;;19.80;36.60
12781;BME280;6454;43.304;24.344;2022-09-24T10:24:57;100668.00;;;19.85;37.57
12781;BME280;6454;43.304;24.344;2022-09-24T10:27:30;100659.38;;;19.87;36.69
12781;BME280;6454;43.304;24.344;2022-09-24T10:30:00;100669.88;;;19.93;37.65
12781;BME280;6454;43.304;24.344;2022-09-24T10:32:46;100659.59;;;20.03;37.47
12781;BME280;6454;43.304;24.344;2022-09-24T10:35:25;100650.66;;;20.06;36.08
12781;BME280;6454;43.304;24.344;2022-09-24T10:37:53;100642.59;;;20.01;36.62
12781;BME280;6454;43.304;24.344;2022-09-24T10:40:22;100644.50;;;19.88;36.74
12781;BME280;6454;43.304;24.344;2022-09-24T10:42:57;100639.66;;;20.06;36.38
12781;BME280;6454;43.304;24.344;2022-09-24T10:48:20;100641.13;;;20.24;36.17
12781;BME280;6454;43.304;24.344;2022-09-24T10:50:56;100635.31;;;20.37;36.80
12781;BME280;6454;43.304;24.344;2022-09-24T10:53:35;100628.03;;;20.53;36.97
12781;BME280;6454;43.304;24.344;2022-09-24T10:56:15;100639.44;;;20.64;35.90
12781;BME280;6454;43.304;24.344;2022-09-24T10:59:01;100637.22;;;20.70;35.67
12781;BME280;6454;43.304;24.344;2022-09-24T11:01:43;100639.75;;;20.63;36.24
12781;BME280;6454;43.304;24.344;2022-09-24T11:04:21;100634.00;;;20.55;36.40
12781;BME280;6454;43.304;24.344;2022-09-24T11:07:05;100633.56;;;20.66;35.69
12781;BME280;6454;43.304;24.344;2022-09-24T11:09:40;100626.34;;;20.73;35.77
12781;BME280;6454;43.304;24.344;2022-09-24T11:12:14;100636.56;;;20.85;36.17
12781;BME280;6454;43.304;24.344;2022-09-24T11:14:57;100626.13;;;20.90;35.53
12781;BME280;6454;43.304;24.344;2022-09-24T11:17:36;100638.91;;;21.07;35.48
12781;BME280;6454;43.304;24.344;2022-09-24T11:20:17;100639.03;;;21.10;34.61
12781;BME280;6454;43.304;24.344;2022-09-24T11:23:03;100647.09;;;21.15;36.10
12781;BME280;6454;43.304;24.344;2022-09-24T11:25:37;100638.41;;;20.93;33.07
12781;BME280;6454;43.304;24.344;2022-09-24T11:28:20;100647.38;;;21.02;32.97
12781;BME280;6454;43.304;24.344;2022-09-24T11:30:57;100629.22;;;20.89;32.86
12781;BME280;6454;43.304;24.344;2022-09-24T11:33:45;100639.44;;;20.88;33.34
12781;BME280;6454;43.304;24.344;2022-09-24T11:36:35;100631.75;;;20.94;33.28
12781;BME280;6454;43.304;24.344;2022-09-24T11:39:17;100629.22;;;21.01;33.44
12781;BME280;6454;43.304;24.344;2022-09-24T11:41:54;100625.47;;;21.17;32.85
12781;BME280;6454;43.304;24.344;2022-09-24T11:47:35;100632.09;;;21.04;31.79
12781;BME280;6454;43.304;24.344;2022-09-24T11:50:28;100630.38;;;21.00;31.66
12781;BME280;6454;43.304;24.344;2022-09-24T11:53:01;100624.16;;;21.03;31.52
12781;BME280;6454;43.304;24.344;2022-09-24T11:55:34;100621.88;;;21.05;31.81
12781;BME280;6454;43.304;24.344;2022-09-24T11:58:10;100615.69;;;21.08;31.40
12781;BME280;6454;43.304;24.344;2022-09-24T12:00:43;100609.94;;;21.13;31.72
12781;BME280;6454;43.304;24.344;2022-09-24T12:03:16;100614.31;;;21.14;31.62
12781;BME280;6454;43.304;24.344;2022-09-24T12:05:48;100610.28;;;21.24;31.73
12781;BME280;6454;43.304;24.344;2022-09-24T12:08:20;100598.22;;;21.28;32.41
12781;BME280;6454;43.304;24.344;2022-09-24T12:10:57;100604.53;;;21.29;30.98
12781;BME280;6454;43.304;24.344;2022-09-24T12:13:27;100595.09;;;21.30;31.75
12781;BME280;6454;43.304;24.344;2022-09-24T12:15:59;100590.97;;;21.36;31.38
12781;BME280;6454;43.304;24.344;2022-09-24T12:18:32;100594.06;;;21.46;32.35
12781;BME280;6454;43.304;24.344;2022-09-24T12:21:06;100601.84;;;21.44;31.92
12781;BME280;6454;43.304;24.344;2022-09-24T12:23:37;100600.63;;;21.30;31.02
12781;BME280;6454;43.304;24.344;2022-09-24T12:26:05;100586.50;;;21.07;31.19
12781;BME280;6454;43.304;24.344;2022-09-24T12:28:39;100602.69;;;21.21;32.12
12781;BME280;6454;43.304;24.344;2022-09-24T12:31:31;100596.34;;;21.32;32.20
12781;BME280;6454;43.304;24.344;2022-09-24T12:34:25;100600.25;;;21.43;31.33
12781;BME280;6454;43.304;24.344;2022-09-24T12:37:01;100594.47;;;21.60;31.26
12781;BME280;6454;43.304;24.344;2022-09-24T12:39:34;100600.81;;;21.61;30.58
12781;BME280;6454;43.304;24.344;2022-09-24T12:42:04;100603.31;;;21.66;31.06
12781;BME280;6454;43.304;24.344;2022-09-24T12:44:41;100589.25;;;21.71;30.39
12781;BME280;6454;43.304;24.344;2022-09-24T12:47:19;100587.41;;;21.75;30.72
12781;BME280;6454;43.304;24.344;2022-09-24T12:49:51;100585.66;;;21.82;30.72
12781;BME280;6454;43.304;24.344;2022-09-24T12:52:26;100588.78;;;21.81;30.47
12781;BME280;6454;43.304;24.344;2022-09-24T12:54:56;100584.50;;;21.83;30.90
12781;BME280;6454;43.304;24.344;2022-09-24T12:57:26;100587.94;;;21.93;30.44
12781;BME280;6454;43.304;24.344;2022-09-24T12:59:58;100578.50;;;21.94;30.08
12781;BME280;6454;43.304;24.344;2022-09-24T13:02:27;100552.69;;;21.62;30.62
12781;BME280;6454;43.304;24.344;2022-09-24T13:05:25;100572.91;;;21.78;30.51
12781;BME280;6454;43.304;24.344;2022-09-24T13:07:59;100573.84;;;21.70;30.28
12781;BME280;6454;43.304;24.344;2022-09-24T13:10:28;100577.97;;;21.64;30.53
12781;BME280;6454;43.304;24.344;2022-09-24T13:12:58;100556.50;;;21.57;30.08
12781;BME280;6454;43.304;24.344;2022-09-24T13:15:30;100567.88;;;21.68;30.94
12781;BME280;6454;43.304;24.344;2022-09-24T13:18:17;100571.56;;;21.60;30.92
12781;BME280;6454;43.304;24.344;2022-09-24T13:20:56;100570.56;;;21.52;30.74
12781;BME280;6454;43.304;24.344;2022-09-24T13:23:41;100568.00;;;21.59;30.88
12781;BME280;6454;43.304;24.344;2022-09-24T13:26:12;100549.59;;;21.63;30.50
12781;BME280;6454;43.304;24.344;2022-09-24T13:28:50;100556.22;;;21.74;30.57